createdAt,value
2023-02-21T00:01:02.296Z,10.90
2023-02-21T00:03:48.379Z,10.90
2023-02-21T00:06:34.073Z,10.80
2023-02-21T00:09:22.272Z,10.90
2023-02-21T00:12:08.392Z,10.80
2023-02-21T00:14:56.912Z,10.80
2023-02-21T00:17:42.707Z,10.80
2023-02-21T00:20:29.134Z,10.80
2023-02-21T00:23:14.521Z,10.80
2023-02-21T00:26:00.340Z,10.80
2023-02-21T00:28:46.729Z,10.80
2023-02-21T00:31:38.204Z,10.80
2023-02-21T00:34:23.933Z,10.80
2023-02-21T00:37:12.571Z,10.80
2023-02-21T00:39:58.444Z,10.70
2023-02-21T00:42:44.254Z,10.70
2023-02-21T00:45:30.301Z,10.70
2023-02-21T00:48:17.555Z,10.70
2023-02-21T00:51:03.191Z,10.70
2023-02-21T00:53:49.305Z,10.70
2023-02-21T00:56:34.983Z,10.70
2023-02-21T00:59:21.082Z,10.70
2023-02-21T01:02:06.581Z,10.70
2023-02-21T01:04:52.649Z,10.70
2023-02-21T01:07:38.206Z,10.70
2023-02-21T01:10:26.285Z,10.70
2023-02-21T01:13:11.725Z,10.60
2023-02-21T01:15:57.993Z,10.60
2023-02-21T01:18:43.730Z,10.60
2023-02-21T01:21:36.812Z,10.60
2023-02-21T01:24:24.319Z,10.60
2023-02-21T01:27:10.667Z,10.60
2023-02-21T01:29:56.518Z,10.50
2023-02-21T01:32:44.453Z,10.60
2023-02-21T01:35:30.204Z,10.50
2023-02-21T01:38:16.486Z,10.50
2023-02-21T01:41:02.631Z,10.50
2023-02-21T01:43:49.069Z,10.50
2023-02-21T01:46:38.233Z,10.50
2023-02-21T01:49:37.728Z,10.50
2023-02-21T01:52:24.211Z,10.50
2023-02-21T01:55:25.141Z,10.50
2023-02-21T01:58:13.362Z,10.50
2023-02-21T02:00:59.780Z,10.50
2023-02-21T02:03:45.918Z,10.50
2023-02-21T02:06:36.044Z,10.50
2023-02-21T02:09:40.324Z,10.50
2023-02-21T02:12:42.235Z,10.50
2023-02-21T02:15:37.033Z,10.50
2023-02-21T02:18:19.498Z,10.50
2023-02-21T02:21:17.091Z,10.50
2023-02-21T02:24:29.336Z,10.50
2023-02-21T02:27:34.659Z,10.50
2023-02-21T02:30:44.147Z,10.40
2023-02-21T02:33:40.960Z,10.40
2023-02-21T02:36:24.773Z,10.40
2023-02-21T02:39:35.875Z,10.50
2023-02-21T02:42:24.140Z,10.50
2023-02-21T02:45:11.205Z,10.40
2023-02-21T02:47:43.383Z,10.40
2023-02-21T02:50:12.451Z,10.40
2023-02-21T02:52:54.539Z,10.40
2023-02-21T02:55:38.011Z,10.40
2023-02-21T02:58:06.433Z,10.40
2023-02-21T03:00:38.536Z,10.40
2023-02-21T03:03:24.852Z,10.40
2023-02-21T03:06:59.268Z,10.30
2023-02-21T03:09:46.449Z,10.30
2023-02-21T03:12:56.274Z,10.30
2023-02-21T03:15:50.130Z,10.20
2023-02-21T03:18:45.703Z,10.20
2023-02-21T03:21:23.113Z,10.20
2023-02-21T03:23:55.030Z,10.10
2023-02-21T03:26:22.380Z,10.10
2023-02-21T03:28:56.828Z,10.10
2023-02-21T03:31:35.082Z,10.10
2023-02-21T03:34:02.364Z,10.10
2023-02-21T03:36:30.103Z,10.00
2023-02-21T03:38:58.365Z,10.00
2023-02-21T03:41:26.523Z,10.00
2023-02-21T03:43:54.419Z,10.00
2023-02-21T03:46:22.180Z,9.90
2023-02-21T03:48:49.572Z,9.90
2023-02-21T03:51:25.785Z,9.90
2023-02-21T03:53:53.181Z,9.80
2023-02-21T03:56:28.111Z,9.70
2023-02-21T03:59:13.989Z,9.70
2023-02-21T04:01:41.503Z,9.70
2023-02-21T04:04:09.630Z,9.60
2023-02-21T04:06:38.019Z,9.60
2023-02-21T04:09:05.217Z,9.60
2023-02-21T04:11:32.698Z,9.50
2023-02-21T04:13:59.984Z,9.50
2023-02-21T04:16:27.367Z,9.50
2023-02-21T04:18:55.833Z,9.50
2023-02-21T04:21:24.746Z,9.40
2023-02-21T04:23:55.001Z,9.40
2023-02-21T04:26:25.252Z,9.40
2023-02-21T04:28:52.898Z,9.30
2023-02-21T04:31:20.290Z,9.30
2023-02-21T04:33:47.559Z,9.30
2023-02-21T04:36:21.710Z,9.30
2023-02-21T04:38:50.452Z,9.30
2023-02-21T04:41:18.443Z,9.20
2023-02-21T04:43:46.479Z,9.20
2023-02-21T04:46:16.835Z,9.20
2023-02-21T04:48:46.940Z,9.20
2023-02-21T04:51:16.955Z,9.20
2023-02-21T04:53:47.473Z,9.20
2023-02-21T04:56:17.636Z,9.20
2023-02-21T04:58:46.032Z,9.10
2023-02-21T05:01:16.318Z,9.10
2023-02-21T05:03:43.670Z,9.10
2023-02-21T05:06:16.990Z,9.10
2023-02-21T05:08:43.936Z,9.10
2023-02-21T05:11:11.077Z,9.10
2023-02-21T05:13:38.298Z,9.00
2023-02-21T05:16:06.153Z,9.00
2023-02-21T05:18:34.524Z,9.00
2023-02-21T05:21:03.299Z,9.00
2023-02-21T05:23:36.967Z,9.00
2023-02-21T05:26:13.572Z,9.00
2023-02-21T05:28:41.491Z,9.00
2023-02-21T05:31:09.165Z,8.90
2023-02-21T05:33:36.350Z,9.00
2023-02-21T05:36:04.025Z,8.90
2023-02-21T05:38:31.008Z,8.90
2023-02-21T05:40:58.408Z,9.00
2023-02-21T05:43:27.419Z,8.90
2023-02-21T05:45:55.916Z,8.90
2023-02-21T05:48:23.912Z,8.90
2023-02-21T05:50:51.194Z,9.00
2023-02-21T05:53:18.123Z,8.90
2023-02-21T05:55:45.409Z,8.90
2023-02-21T05:58:12.390Z,8.90
2023-02-21T06:00:39.684Z,8.90
2023-02-21T06:03:06.663Z,8.90
2023-02-21T06:05:34.147Z,8.90
2023-02-21T06:08:01.036Z,8.80
2023-02-21T06:10:28.378Z,8.80
2023-02-21T06:12:55.587Z,8.90
2023-02-21T06:15:23.567Z,8.80
2023-02-21T06:17:50.555Z,8.90
2023-02-21T06:20:19.192Z,8.90
2023-02-21T06:22:47.321Z,8.90
2023-02-21T06:25:15.272Z,8.90
2023-02-21T06:27:43.819Z,8.80
2023-02-21T06:30:12.084Z,8.80
2023-02-21T06:32:39.125Z,8.90
2023-02-21T06:35:07.146Z,8.90
2023-02-21T06:37:34.120Z,8.90
2023-02-21T06:40:01.303Z,8.90
2023-02-21T06:42:29.955Z,8.90
2023-02-21T06:44:57.492Z,8.90
2023-02-21T06:47:24.523Z,8.90
2023-02-21T06:49:52.185Z,9.00
2023-02-21T06:52:19.354Z,8.90
2023-02-21T06:54:49.183Z,8.90
2023-02-21T06:57:16.427Z,8.90
2023-02-21T06:59:43.662Z,8.90
2023-02-21T07:02:19.507Z,8.90
2023-02-21T07:04:47.760Z,8.90
2023-02-21T07:07:15.824Z,8.90
2023-02-21T07:09:43.248Z,8.90
2023-02-21T07:12:11.103Z,8.90
2023-02-21T07:14:38.578Z,8.90
2023-02-21T07:17:05.495Z,8.90
2023-02-21T07:19:32.679Z,8.90
2023-02-21T07:21:59.652Z,8.90
2023-02-21T07:24:27.018Z,8.90
2023-02-21T07:26:53.993Z,8.90
2023-02-21T07:29:21.308Z,8.90
2023-02-21T07:31:48.385Z,8.90
2023-02-21T07:34:15.707Z,8.90
2023-02-21T07:36:43.164Z,8.90
2023-02-21T07:39:10.425Z,8.90
2023-02-21T07:41:37.371Z,9.00
2023-02-21T07:44:04.812Z,9.00
2023-02-21T07:46:31.862Z,9.00
2023-02-21T07:48:59.081Z,9.00
2023-02-21T07:51:30.096Z,9.00
2023-02-21T07:53:57.743Z,9.00
2023-02-21T07:56:24.742Z,9.00
2023-02-21T07:58:52.025Z,9.00
2023-02-21T08:01:24.791Z,9.00
2023-02-21T08:03:54.908Z,9.00
2023-02-21T08:06:21.970Z,9.00
2023-02-21T08:08:49.428Z,9.00
2023-02-21T08:11:16.537Z,9.10
2023-02-21T08:13:43.965Z,9.10
2023-02-21T08:16:11.027Z,9.10
2023-02-21T08:18:38.344Z,9.10
2023-02-21T08:21:10.773Z,9.20
2023-02-21T08:23:38.088Z,9.20
2023-02-21T08:26:07.020Z,9.20
2023-02-21T08:28:34.388Z,9.20
2023-02-21T08:31:01.380Z,9.20
2023-02-21T08:33:31.449Z,9.20
2023-02-21T08:35:58.638Z,9.20
2023-02-21T08:38:25.961Z,9.30
2023-02-21T08:40:53.880Z,9.30
2023-02-21T08:43:21.969Z,9.30
2023-02-21T08:45:48.924Z,9.40
2023-02-21T08:48:16.327Z,9.40
2023-02-21T08:50:43.358Z,9.50
2023-02-21T08:53:15.423Z,9.50
2023-02-21T08:55:43.085Z,9.60
2023-02-21T08:58:12.892Z,9.60
2023-02-21T09:00:39.968Z,9.60
2023-02-21T09:03:07.847Z,9.60
2023-02-21T09:05:34.885Z,9.60
2023-02-21T09:08:02.288Z,9.60
2023-02-21T09:10:35.565Z,9.70
2023-02-21T09:13:04.232Z,9.70
2023-02-21T09:15:31.915Z,9.70
2023-02-21T09:18:00.804Z,9.70
2023-02-21T09:20:28.222Z,9.70
2023-02-21T09:22:55.486Z,9.70
2023-02-21T09:25:25.122Z,9.60
2023-02-21T09:27:54.696Z,9.60
2023-02-21T09:30:26.722Z,9.60
2023-02-21T09:32:55.301Z,9.50
2023-02-21T09:35:23.453Z,9.50
2023-02-21T09:37:51.171Z,9.60
2023-02-21T09:40:39.360Z,9.60
2023-02-21T09:43:20.928Z,9.60
2023-02-21T09:45:52.173Z,9.60
2023-02-21T09:48:23.109Z,9.60
2023-02-21T09:50:56.073Z,9.60
2023-02-21T09:53:40.145Z,9.60
2023-02-21T09:56:31.765Z,9.60
2023-02-21T09:58:59.011Z,9.60
2023-02-21T10:01:47.810Z,9.60
2023-02-21T10:04:36.327Z,9.60
2023-02-21T10:07:22.296Z,9.60
2023-02-21T10:10:09.466Z,9.60
2023-02-21T10:12:56.088Z,9.70
2023-02-21T10:15:55.420Z,9.80
2023-02-21T10:18:35.882Z,9.90
2023-02-21T10:21:28.364Z,9.90
2023-02-21T10:23:57.995Z,9.90
2023-02-21T10:26:30.282Z,10.00
2023-02-21T10:28:58.951Z,10.00
2023-02-21T10:31:39.399Z,10.00
2023-02-21T10:34:20.708Z,10.10
2023-02-21T10:36:50.154Z,10.30
2023-02-21T10:39:35.209Z,10.50
2023-02-21T10:42:02.296Z,10.60
2023-02-21T10:44:35.171Z,10.70
2023-02-21T10:47:16.693Z,10.80
2023-02-21T10:50:07.091Z,10.80
2023-02-21T10:52:48.019Z,10.80
2023-02-21T10:55:32.360Z,10.90
2023-02-21T10:58:18.477Z,10.90
2023-02-21T11:00:49.585Z,10.80
2023-02-21T11:03:19.854Z,10.80
2023-02-21T11:05:53.064Z,10.90
2023-02-21T11:08:43.752Z,10.90
2023-02-21T11:11:11.397Z,11.10
2023-02-21T11:13:38.506Z,11.20
2023-02-21T11:16:18.764Z,11.20
2023-02-21T11:18:46.299Z,11.20
2023-02-21T11:21:19.721Z,11.20
2023-02-21T11:24:03.583Z,11.20
2023-02-21T11:26:53.073Z,11.30
2023-02-21T11:29:27.255Z,11.30
2023-02-21T11:31:56.268Z,11.30
2023-02-21T11:34:30.104Z,11.20
2023-02-21T11:37:05.208Z,11.10
2023-02-21T11:39:33.971Z,11.00
2023-02-21T11:42:04.939Z,10.90
2023-02-21T11:44:39.091Z,10.80
2023-02-21T11:47:26.370Z,10.70
2023-02-21T11:50:15.744Z,10.70
2023-02-21T11:53:07.232Z,10.60
2023-02-21T11:55:35.122Z,10.70
2023-02-21T11:58:31.805Z,10.70
2023-02-21T12:01:27.659Z,10.70
2023-02-21T12:04:36.298Z,10.60
2023-02-21T12:07:47.204Z,10.60
2023-02-21T12:11:11.495Z,10.60
2023-02-21T12:14:15.308Z,10.50
2023-02-21T12:17:19.796Z,10.50
2023-02-21T12:20:24.904Z,10.50
2023-02-21T12:23:23.117Z,10.40
2023-02-21T12:26:28.682Z,10.40
2023-02-21T12:29:14.107Z,10.40
2023-02-21T12:32:13.564Z,10.50
2023-02-21T12:35:37.696Z,10.50
2023-02-21T12:38:18.059Z,10.60
2023-02-21T12:41:07.199Z,10.70
2023-02-21T12:44:13.928Z,10.70
2023-02-21T12:47:13.317Z,10.70
2023-02-21T12:50:01.667Z,10.70
2023-02-21T12:52:40.814Z,10.70
2023-02-21T12:55:25.318Z,10.70
2023-02-21T12:58:18.970Z,10.60
2023-02-21T13:01:10.647Z,10.50
2023-02-21T13:04:22.786Z,10.50
2023-02-21T13:07:18.920Z,10.50
2023-02-21T13:10:12.715Z,10.70
2023-02-21T13:13:22.699Z,11.00
2023-02-21T13:15:54.027Z,11.20
2023-02-21T13:18:32.335Z,11.20
2023-02-21T13:21:49.342Z,11.20
2023-02-21T13:24:46.024Z,11.20
2023-02-21T13:27:48.700Z,11.30
2023-02-21T13:30:40.561Z,11.20
2023-02-21T13:33:27.776Z,11.20
2023-02-21T13:35:59.959Z,11.20
2023-02-21T13:38:32.530Z,11.20
2023-02-21T13:41:11.286Z,11.20
2023-02-21T13:43:50.858Z,11.20
2023-02-21T13:46:31.751Z,11.20
2023-02-21T13:49:38.459Z,11.20
2023-02-21T13:52:23.326Z,11.00
2023-02-21T13:55:13.465Z,10.90
2023-02-21T13:58:07.428Z,10.90
2023-02-21T14:00:34.642Z,10.80
2023-02-21T14:03:09.563Z,10.80
2023-02-21T14:05:51.841Z,10.90
2023-02-21T14:08:32.760Z,11.00
2023-02-21T14:11:10.589Z,11.20
2023-02-21T14:13:55.502Z,11.50
2023-02-21T14:16:48.576Z,11.70
2023-02-21T14:19:30.576Z,11.90
2023-02-21T14:22:31.145Z,11.90
2023-02-21T14:25:21.188Z,11.90
2023-02-21T14:27:48.552Z,11.90
2023-02-21T14:30:28.562Z,11.90
2023-02-21T14:33:09.800Z,11.80
2023-02-21T14:35:49.443Z,11.70
2023-02-21T14:38:25.969Z,11.70
2023-02-21T14:41:43.925Z,11.60
2023-02-21T14:44:35.504Z,11.50
2023-02-21T14:47:36.312Z,11.40
2023-02-21T14:50:59.521Z,11.40
2023-02-21T14:54:11.477Z,11.40
2023-02-21T14:57:20.984Z,11.30
2023-02-21T15:00:19.218Z,11.30
2023-02-21T15:03:17.652Z,11.30
2023-02-21T15:06:03.423Z,11.40
2023-02-21T15:08:46.368Z,11.50
2023-02-21T15:11:26.367Z,11.60
2023-02-21T15:14:22.819Z,11.60
2023-02-21T15:17:00.771Z,11.60
2023-02-21T15:19:37.810Z,11.60
2023-02-21T15:22:17.298Z,11.60
2023-02-21T15:25:20.877Z,11.50
2023-02-21T15:27:51.166Z,11.50
2023-02-21T15:30:23.547Z,11.40
2023-02-21T15:33:15.207Z,11.40
2023-02-21T15:36:03.077Z,11.20
2023-02-21T15:38:41.433Z,11.20
2023-02-21T15:41:29.857Z,11.10
2023-02-21T15:44:17.108Z,11.10
2023-02-21T15:47:02.747Z,11.00
2023-02-21T15:49:38.187Z,10.90
2023-02-21T15:52:06.495Z,10.90
2023-02-21T15:54:38.403Z,10.90
2023-02-21T15:57:11.981Z,10.80
2023-02-21T15:59:40.299Z,10.80
2023-02-21T16:02:25.197Z,10.80
2023-02-21T16:04:53.477Z,10.70
2023-02-21T16:07:37.345Z,10.70
2023-02-21T16:10:11.643Z,10.70
2023-02-21T16:12:43.680Z,10.60
2023-02-21T16:15:27.899Z,10.60
2023-02-21T16:18:03.432Z,10.60
2023-02-21T16:20:43.205Z,10.50
2023-02-21T16:23:29.266Z,10.50
2023-02-21T16:25:59.290Z,10.50
2023-02-21T16:28:28.311Z,10.50
2023-02-21T16:30:58.983Z,10.40
2023-02-21T16:33:28.101Z,10.40
2023-02-21T16:35:56.071Z,10.40
2023-02-21T16:38:27.102Z,10.40
2023-02-21T16:40:54.133Z,10.40
2023-02-21T16:43:29.462Z,10.40
2023-02-21T16:45:58.673Z,10.50
2023-02-21T16:48:32.909Z,10.50
2023-02-21T16:51:16.595Z,10.50
2023-02-21T16:53:46.168Z,10.40
2023-02-21T16:56:14.553Z,10.40
2023-02-21T16:58:48.470Z,10.40
2023-02-21T17:01:27.772Z,10.30
2023-02-21T17:03:56.407Z,10.40
2023-02-21T17:06:27.654Z,10.40
2023-02-21T17:08:55.103Z,10.30
2023-02-21T17:11:22.491Z,10.30
2023-02-21T17:13:49.709Z,10.30
2023-02-21T17:16:17.490Z,10.20
2023-02-21T17:18:45.533Z,10.20
2023-02-21T17:21:13.015Z,10.20
2023-02-21T17:23:41.678Z,10.20
2023-02-21T17:26:08.886Z,10.10
2023-02-21T17:28:39.472Z,10.10
2023-02-21T17:31:06.810Z,10.10
2023-02-21T17:33:35.489Z,10.10
2023-02-21T17:36:05.224Z,10.10
2023-02-21T17:38:33.729Z,10.10
2023-02-21T17:41:00.658Z,10.10
2023-02-21T17:43:29.519Z,10.10
2023-02-21T17:45:56.467Z,10.10
2023-02-21T17:48:35.887Z,10.10
2023-02-21T17:51:04.383Z,10.00
2023-02-21T17:53:32.453Z,10.00
2023-02-21T17:55:59.979Z,10.00
2023-02-21T17:58:30.165Z,10.00
2023-02-21T18:00:58.704Z,10.00
2023-02-21T18:03:26.332Z,10.00
2023-02-21T18:05:53.296Z,10.00
2023-02-21T18:08:20.557Z,10.00
2023-02-21T18:10:47.758Z,10.00
2023-02-21T18:13:22.985Z,10.00
2023-02-21T18:15:50.210Z,10.00
2023-02-21T18:18:18.008Z,10.00
2023-02-21T18:20:46.069Z,10.00
2023-02-21T18:23:15.343Z,10.00
2023-02-21T18:25:42.385Z,10.00
2023-02-21T18:28:10.499Z,9.90
2023-02-21T18:30:37.508Z,10.00
2023-02-21T18:33:04.917Z,9.90
2023-02-21T18:35:31.984Z,9.90
2023-02-21T18:37:59.288Z,9.90
2023-02-21T18:40:34.224Z,9.90
2023-02-21T18:43:02.946Z,9.90
2023-02-21T18:45:32.927Z,9.80
2023-02-21T18:48:02.168Z,9.80
2023-02-21T18:50:30.188Z,9.90
2023-02-21T18:52:58.113Z,9.90
2023-02-21T18:55:25.191Z,9.80
2023-02-21T18:57:52.861Z,9.70
2023-02-21T19:00:20.396Z,9.70
2023-02-21T19:02:47.727Z,9.80
2023-02-21T19:05:21.635Z,9.80
2023-02-21T19:07:48.922Z,9.80
2023-02-21T19:10:21.264Z,9.80
2023-02-21T19:12:50.336Z,9.90
2023-02-21T19:15:21.131Z,9.90
2023-02-21T19:17:49.529Z,9.90
2023-02-21T19:20:19.631Z,9.90
2023-02-21T19:22:47.276Z,9.90
2023-02-21T19:25:17.430Z,9.90
2023-02-21T19:27:45.474Z,9.80
2023-02-21T19:30:14.113Z,9.90
2023-02-21T19:32:41.315Z,9.90
2023-02-21T19:35:09.476Z,9.90
2023-02-21T19:37:38.790Z,9.80
2023-02-21T19:40:08.043Z,9.80
2023-02-21T19:42:35.811Z,9.80
2023-02-21T19:45:02.762Z,9.70
2023-02-21T19:47:30.130Z,9.70
2023-02-21T19:49:58.270Z,9.70
2023-02-21T19:52:25.523Z,9.70
2023-02-21T19:54:52.563Z,9.70
2023-02-21T19:57:19.840Z,9.70
2023-02-21T19:59:46.870Z,9.70
2023-02-21T20:02:15.992Z,9.70
2023-02-21T20:04:43.588Z,9.70
2023-02-21T20:07:11.970Z,9.70
2023-02-21T20:09:39.430Z,9.70
2023-02-21T20:12:07.265Z,9.70
2023-02-21T20:14:34.186Z,9.60
2023-02-21T20:17:04.508Z,9.60
2023-02-21T20:19:31.688Z,9.50
2023-02-21T20:21:58.882Z,9.50
2023-02-21T20:24:25.889Z,9.40
2023-02-21T20:26:54.265Z,9.30
2023-02-21T20:29:23.679Z,9.30
2023-02-21T20:31:51.116Z,9.30
2023-02-21T20:34:18.191Z,9.30
2023-02-21T20:36:46.033Z,9.20
2023-02-21T20:39:42.186Z,9.10
2023-02-21T20:42:09.525Z,9.10
2023-02-21T20:44:38.809Z,9.10
2023-02-21T20:47:06.876Z,9.10
2023-02-21T20:49:35.174Z,9.10
2023-02-21T20:52:05.756Z,9.10
2023-02-21T20:54:32.830Z,9.10
2023-02-21T20:57:00.735Z,9.10
2023-02-21T20:59:32.230Z,9.00
2023-02-21T21:02:00.951Z,9.10
2023-02-21T21:04:35.677Z,9.00
2023-02-21T21:07:12.738Z,9.00
2023-02-21T21:09:40.498Z,9.10
2023-02-21T21:12:12.316Z,9.10
2023-02-21T21:14:45.942Z,9.00
2023-02-21T21:17:18.005Z,9.10
2023-02-21T21:19:47.873Z,9.00
2023-02-21T21:22:22.912Z,9.00
2023-02-21T21:24:51.771Z,8.90
2023-02-21T21:27:21.549Z,8.90
2023-02-21T21:29:49.761Z,8.90
2023-02-21T21:32:23.680Z,8.90
2023-02-21T21:34:57.283Z,8.90
2023-02-21T21:37:28.675Z,8.90
2023-02-21T21:39:56.676Z,8.80
2023-02-21T21:42:27.781Z,8.80
2023-02-21T21:44:57.514Z,8.80
2023-02-21T21:47:28.764Z,8.80
2023-02-21T21:49:55.948Z,8.80
2023-02-21T21:52:25.895Z,8.70
2023-02-21T21:54:53.176Z,8.70
2023-02-21T21:57:22.658Z,8.60
2023-02-21T21:59:50.234Z,8.50
2023-02-21T22:02:18.307Z,8.50
2023-02-21T22:04:47.992Z,8.50
2023-02-21T22:07:15.811Z,8.50
2023-02-21T22:09:42.754Z,8.50
2023-02-21T22:12:20.897Z,8.50
2023-02-21T22:14:49.811Z,8.50
2023-02-21T22:17:17.122Z,8.50
2023-02-21T22:19:45.208Z,8.40
2023-02-21T22:22:13.628Z,8.40
2023-02-21T22:24:40.713Z,8.40
2023-02-21T22:27:08.050Z,8.40
2023-02-21T22:29:35.777Z,8.40
2023-02-21T22:32:03.050Z,8.40
2023-02-21T22:34:30.044Z,8.40
2023-02-21T22:36:58.484Z,8.30
2023-02-21T22:39:27.038Z,8.30
2023-02-21T22:41:54.390Z,8.30
2023-02-21T22:44:24.638Z,8.30
2023-02-21T22:47:00.554Z,8.30
2023-02-21T22:49:31.425Z,8.20
2023-02-21T22:51:58.791Z,8.20
2023-02-21T22:54:26.771Z,8.20
2023-02-21T22:57:00.590Z,8.20
2023-02-21T22:59:29.549Z,8.20
2023-02-21T23:01:59.385Z,8.20
2023-02-21T23:04:26.846Z,8.20
2023-02-21T23:06:58.655Z,8.20
2023-02-21T23:09:29.090Z,8.20
2023-02-21T23:12:00.793Z,8.20
2023-02-21T23:14:31.902Z,8.10
2023-02-21T23:17:00.232Z,8.10
2023-02-21T23:19:30.094Z,8.10
2023-02-21T23:21:57.867Z,8.10
2023-02-21T23:24:25.746Z,8.20
2023-02-21T23:26:54.640Z,8.10
2023-02-21T23:29:25.594Z,8.10
2023-02-21T23:31:57.844Z,8.10
2023-02-21T23:34:39.920Z,8.10
2023-02-21T23:37:09.262Z,8.10
2023-02-21T23:39:36.455Z,8.00
2023-02-21T23:42:05.462Z,8.00
2023-02-21T23:44:35.934Z,8.00
2023-02-21T23:47:06.115Z,8.00
2023-02-21T23:49:33.350Z,7.90
2023-02-21T23:52:01.693Z,7.90
2023-02-21T23:54:29.550Z,7.90
2023-02-21T23:57:00.370Z,7.90
2023-02-21T23:59:28.616Z,7.90
